Time;durP1;ratioP1;P1;durP2;ratioP2;P2;SDS_P1;SDS_P2;PMS_P1;PMS_P2;Temp;Humidity;BMP_temperature;BMP_pressure;BME280_temperature;BME280_humidity;BME280_pressure;Samples;Min_cycle;Max_cycle;Signal;HPM_P1;HPM_P2
2022/01/29 00:00:29;;;;;;;6.87;1.77;;;5.00;99.90;;;;;;4917365;29;20725;-56
2022/01/29 00:02:56;;;;;;;5.93;1.47;;;5.00;99.90;;;;;;4915951;29;20481;-55
2022/01/29 00:05:24;;;;;;;3.53;1.30;;;5.00;99.90;;;;;;4916613;29;20450;-54
2022/01/29 00:07:51;;;;;;;2.70;1.43;;;5.00;99.90;;;;;;4916610;29;21000;-58
2022/01/29 00:10:18;;;;;;;6.53;1.87;;;5.00;99.90;;;;;;4916445;29;20447;-56
2022/01/29 00:12:48;;;;;;;5.03;1.50;;;5.00;99.90;;;;;;4916991;29;20523;-60
2022/01/29 00:15:17;;;;;;;2.80;1.23;;;5.00;99.90;;;;;;4918210;29;20762;-65
2022/01/29 00:17:44;;;;;;;11.77;1.97;;;4.90;99.90;;;;;;4920000;29;20462;-60
2022/01/29 00:20:11;;;;;;;6.43;2.30;;;4.90;99.90;;;;;;4919944;29;20510;-60
2022/01/29 00:22:42;;;;;;;4.30;1.93;;;5.00;99.90;;;;;;4918985;29;20454;-57
2022/01/29 00:25:12;;;;;;;4.30;1.73;;;4.90;99.90;;;;;;4919709;29;20479;-61
2022/01/29 00:27:40;;;;;;;17.53;3.13;;;4.90;99.90;;;;;;4920513;29;20538;-61
2022/01/29 00:30:10;;;;;;;2.13;1.10;;;4.90;99.90;;;;;;4920483;29;20446;-62
2022/01/29 00:32:40;;;;;;;5.50;1.23;;;4.90;99.90;;;;;;4921078;29;20479;-59
2022/01/29 00:35:07;;;;;;;12.73;2.20;;;4.80;99.90;;;;;;4920603;29;20455;-56
2022/01/29 00:37:34;;;;;;;22.03;2.47;;;4.80;99.90;;;;;;4920064;29;20490;-57
2022/01/29 00:40:06;;;;;;;6.50;1.20;;;4.80;99.90;;;;;;4920368;29;20447;-57
2022/01/29 00:42:33;;;;;;;5.20;2.50;;;4.70;99.90;;;;;;4920169;29;20447;-57
2022/01/29 00:44:59;;;;;;;5.53;3.10;;;4.80;99.90;;;;;;4920444;29;20470;-56
2022/01/29 00:47:26;;;;;;;1.40;1.20;;;4.80;99.90;;;;;;4920965;29;20515;-60
2022/01/29 00:49:54;;;;;;;4.20;1.80;;;4.80;99.90;;;;;;4920505;29;20443;-60
2022/01/29 00:52:21;;;;;;;3.10;1.73;;;4.80;99.90;;;;;;4920147;29;20439;-49
2022/01/29 00:54:48;;;;;;;7.50;2.53;;;4.80;99.90;;;;;;4920382;29;20518;-55
2022/01/29 00:57:19;;;;;;;4.20;1.83;;;4.80;99.90;;;;;;4920624;29;20466;-54
2022/01/29 00:59:46;;;;;;;10.83;2.93;;;4.80;99.90;;;;;;4919906;29;20447;-57
2022/01/29 01:02:15;;;;;;;6.03;1.80;;;4.80;99.90;;;;;;4919825;29;20759;-57
2022/01/29 01:04:42;;;;;;;11.87;1.60;;;4.70;99.90;;;;;;4920252;29;20431;-54
2022/01/29 01:07:10;;;;;;;2.27;1.40;;;4.80;99.90;;;;;;4919910;29;20469;-55
2022/01/29 01:09:37;;;;;;;10.40;1.23;;;4.80;99.90;;;;;;4919282;29;20479;-57
2022/01/29 01:12:05;;;;;;;5.80;2.00;;;4.80;99.90;;;;;;4919875;29;20483;-57
2022/01/29 01:14:34;;;;;;;8.30;1.43;;;4.80;99.90;;;;;;4920128;29;20598;-56
2022/01/29 01:17:01;;;;;;;10.23;2.70;;;4.80;99.90;;;;;;4920374;29;20432;-63
2022/01/29 01:19:28;;;;;;;4.33;1.43;;;4.80;99.90;;;;;;4920524;29;20495;-59
2022/01/29 01:21:55;;;;;;;7.70;3.07;;;4.80;99.90;;;;;;4920078;29;20507;-50
2022/01/29 01:24:24;;;;;;;6.63;2.23;;;4.80;99.90;;;;;;4920036;29;20455;-53
2022/01/29 01:26:51;;;;;;;2.80;1.40;;;4.80;99.90;;;;;;4919221;29;20475;-60
2022/01/29 01:29:18;;;;;;;4.73;1.93;;;4.80;99.90;;;;;;4919821;29;20439;-59
2022/01/29 01:31:46;;;;;;;17.97;3.20;;;4.80;99.90;;;;;;4919864;29;20454;-59
2022/01/29 01:34:14;;;;;;;2.43;1.50;;;4.70;99.90;;;;;;4919634;29;20483;-59
2022/01/29 01:36:47;;;;;;;14.70;2.30;;;4.70;99.90;;;;;;4919479;29;20447;-56
2022/01/29 01:39:18;;;;;;;4.10;1.07;;;4.70;99.90;;;;;;4919809;29;20507;-59
2022/01/29 01:41:54;;;;;;;6.97;1.40;;;4.70;99.90;;;;;;4919583;29;20447;-50
2022/01/29 01:44:21;;;;;;;4.83;1.50;;;4.70;99.90;;;;;;4919443;29;20431;-56
2022/01/29 01:46:51;;;;;;;13.03;2.40;;;4.70;99.90;;;;;;4919470;29;20494;-52
2022/01/29 01:49:19;;;;;;;3.87;1.77;;;4.80;99.90;;;;;;4919800;29;20916;-56
2022/01/29 01:51:45;;;;;;;12.53;2.50;;;4.80;99.90;;;;;;4918690;29;20475;-56
2022/01/29 01:54:12;;;;;;;2.07;1.53;;;4.70;99.90;;;;;;4918746;29;20894;-58
2022/01/29 01:56:44;;;;;;;1.83;1.43;;;4.70;99.90;;;;;;4918503;29;20451;-53
2022/01/29 01:59:12;;;;;;;3.00;1.10;;;4.70;99.90;;;;;;4918714;29;20435;-51
2022/01/29 02:01:39;;;;;;;7.50;2.33;;;4.80;99.90;;;;;;4919027;29;20461;-61
2022/01/29 02:04:07;;;;;;;5.10;1.50;;;4.80;99.90;;;;;;4919259;29;20499;-58
2022/01/29 02:06:34;;;;;;;7.20;3.00;;;4.80;99.90;;;;;;4918851;29;20459;-58
2022/01/29 02:09:01;;;;;;;1.40;1.00;;;4.80;99.90;;;;;;4918329;29;20574;-56
2022/01/29 02:11:28;;;;;;;3.00;1.27;;;4.80;99.90;;;;;;4918586;29;20541;-58
2022/01/29 02:13:57;;;;;;;4.37;2.03;;;4.80;99.90;;;;;;4918764;29;20515;-58
2022/01/29 02:16:23;;;;;;;6.10;1.80;;;4.80;99.90;;;;;;4919019;29;20455;-54
2022/01/29 02:18:50;;;;;;;11.53;1.90;;;4.80;99.90;;;;;;4919125;29;20462;-50
2022/01/29 02:21:20;;;;;;;2.03;1.40;;;4.80;99.90;;;;;;4919640;29;20441;-51
2022/01/29 02:23:50;;;;;;;5.57;1.90;;;4.80;99.90;;;;;;4919340;29;20463;-58
2022/01/29 02:26:18;;;;;;;5.20;2.30;;;4.70;99.90;;;;;;4919088;29;20531;-60
2022/01/29 02:28:44;;;;;;;9.20;2.60;;;4.70;99.90;;;;;;4919263;29;20447;-55
2022/01/29 02:31:11;;;;;;;11.20;3.20;;;4.80;99.90;;;;;;4918340;29;20499;-56
2022/01/29 02:33:40;;;;;;;2.50;1.30;;;4.80;99.90;;;;;;4918492;29;20933;-51
2022/01/29 02:36:07;;;;;;;2.23;1.60;;;4.80;99.90;;;;;;4918232;29;20475;-57
2022/01/29 02:38:35;;;;;;;6.47;1.63;;;4.80;99.90;;;;;;4918344;29;20494;-58
2022/01/29 02:41:05;;;;;;;4.80;1.43;;;4.70;99.90;;;;;;4918287;29;20451;-57
2022/01/29 02:43:39;;;;;;;6.43;2.03;;;4.70;99.90;;;;;;4919076;29;20483;-58
2022/01/29 02:46:18;;;;;;;10.53;1.73;;;4.70;99.90;;;;;;4918533;29;20459;-53
2022/01/29 02:48:45;;;;;;;8.77;2.10;;;4.70;99.90;;;;;;4918831;29;20471;-58
2022/01/29 02:51:14;;;;;;;6.60;2.70;;;4.70;99.90;;;;;;4919052;29;20455;-60
2022/01/29 02:53:41;;;;;;;7.33;3.70;;;4.70;99.90;;;;;;4919078;29;20494;-58
2022/01/29 02:56:09;;;;;;;6.77;1.17;;;4.70;99.90;;;;;;4918940;29;20545;-54
2022/01/29 02:58:37;;;;;;;12.23;2.83;;;4.70;99.90;;;;;;4918546;29;20471;-60
2022/01/29 03:01:04;;;;;;;12.27;2.43;;;4.70;99.90;;;;;;4918812;29;20439;-57
2022/01/29 03:03:31;;;;;;;6.07;1.80;;;4.60;99.90;;;;;;4918355;29;20457;-53
2022/01/29 03:06:01;;;;;;;4.70;1.63;;;4.60;99.90;;;;;;4918806;29;20442;-59
2022/01/29 03:08:28;;;;;;;7.33;1.10;;;4.60;99.90;;;;;;4918189;29;20459;-54
2022/01/29 03:10:57;;;;;;;9.37;1.87;;;4.60;99.90;;;;;;4918454;29;20443;-51
2022/01/29 03:13:25;;;;;;;13.27;4.80;;;4.60;99.90;;;;;;4918728;29;20483;-59
2022/01/29 03:15:52;;;;;;;4.83;3.00;;;4.60;99.90;;;;;;4918460;29;20507;-59
2022/01/29 03:18:22;;;;;;;2.63;1.60;;;4.60;99.90;;;;;;4918211;29;20451;-53
2022/01/29 03:20:49;;;;;;;6.70;1.87;;;4.50;99.90;;;;;;4918414;29;21057;-58
2022/01/29 03:23:17;;;;;;;3.10;1.40;;;4.50;99.90;;;;;;4918349;29;20443;-60
2022/01/29 03:25:44;;;;;;;13.87;3.70;;;4.50;99.90;;;;;;4918767;29;20451;-50
2022/01/29 03:28:11;;;;;;;2.60;1.70;;;4.40;99.90;;;;;;4918921;29;20461;-58
2022/01/29 03:30:39;;;;;;;14.83;2.03;;;4.40;99.90;;;;;;4918496;29;20450;-60
2022/01/29 03:33:06;;;;;;;4.77;1.50;;;4.40;99.90;;;;;;4918193;29;20526;-58
2022/01/29 03:35:32;;;;;;;5.50;2.17;;;4.40;99.90;;;;;;4918159;29;21032;-62
2022/01/29 03:37:59;;;;;;;2.77;1.97;;;4.50;99.90;;;;;;4918178;29;20478;-58
2022/01/29 03:40:26;;;;;;;2.33;1.63;;;4.50;99.90;;;;;;4918311;29;20531;-61
2022/01/29 03:43:01;;;;;;;5.90;2.00;;;4.50;99.90;;;;;;4917933;29;20473;-57
2022/01/29 03:45:28;;;;;;;6.20;2.30;;;4.50;99.90;;;;;;4918826;29;20471;-57
2022/01/29 03:47:56;;;;;;;5.03;2.03;;;4.40;99.90;;;;;;4918724;29;20455;-55
2022/01/29 03:50:23;;;;;;;3.80;1.90;;;4.40;99.90;;;;;;4920602;29;20463;-58
2022/01/29 03:52:51;;;;;;;2.87;1.73;;;4.30;99.90;;;;;;4921830;29;20510;-57
2022/01/29 03:55:18;;;;;;;2.73;1.80;;;4.30;99.90;;;;;;4921646;29;20491;-60
2022/01/29 03:57:47;;;;;;;5.93;3.30;;;4.30;99.90;;;;;;4922684;29;20463;-58
2022/01/29 04:00:15;;;;;;;6.87;3.07;;;4.30;99.90;;;;;;4922237;29;20475;-59
2022/01/29 04:02:41;;;;;;;4.20;1.70;;;4.20;99.90;;;;;;4922451;29;20487;-57
2022/01/29 04:05:11;;;;;;;6.40;2.87;;;4.20;99.90;;;;;;4921856;29;20459;-55
2022/01/29 04:07:38;;;;;;;4.27;2.33;;;4.30;99.90;;;;;;4922291;29;20432;-52
2022/01/29 04:10:09;;;;;;;7.23;3.43;;;4.30;99.90;;;;;;4922159;29;20447;-54
2022/01/29 04:12:41;;;;;;;4.70;2.40;;;4.40;99.90;;;;;;4921700;29;20446;-52
2022/01/29 04:15:09;;;;;;;4.00;2.13;;;4.40;99.90;;;;;;4921478;29;20502;-59
2022/01/29 04:17:35;;;;;;;8.80;2.10;;;4.40;99.90;;;;;;4922007;29;20467;-54
2022/01/29 04:20:03;;;;;;;2.80;1.93;;;4.40;99.90;;;;;;4921445;29;20487;-54
2022/01/29 04:22:31;;;;;;;8.80;3.00;;;4.40;99.90;;;;;;4921245;29;20483;-54
2022/01/29 04:25:06;;;;;;;6.40;2.50;;;4.50;99.90;;;;;;4921924;29;20462;-58
2022/01/29 04:27:39;;;;;;;10.27;2.67;;;4.40;99.90;;;;;;4922697;29;20490;-60
2022/01/29 04:30:11;;;;;;;5.70;3.33;;;4.40;99.90;;;;;;4922349;29;20482;-58
2022/01/29 04:32:59;;;;;;;7.73;3.20;;;4.40;99.90;;;;;;4922340;29;20463;-50
2022/01/29 04:35:26;;;;;;;17.47;2.50;;;4.40;99.90;;;;;;4921267;29;20550;-54
2022/01/29 04:37:54;;;;;;;21.53;4.53;;;4.40;99.90;;;;;;4920805;29;20462;-61
2022/01/29 04:40:21;;;;;;;12.80;4.10;;;4.40;99.90;;;;;;4922081;29;20514;-61
2022/01/29 04:42:50;;;;;;;6.90;3.10;;;4.40;99.90;;;;;;4922073;29;20467;-54
2022/01/29 04:45:17;;;;;;;5.37;2.93;;;4.40;99.90;;;;;;4921583;29;20443;-56
2022/01/29 04:47:43;;;;;;;3.53;2.63;;;4.50;99.90;;;;;;4921501;29;20451;-51
2022/01/29 04:50:13;;;;;;;16.33;2.60;;;4.50;99.90;;;;;;4921817;29;20470;-54
2022/01/29 04:52:41;;;;;;;4.73;1.90;;;4.40;99.90;;;;;;4921055;29;20471;-51
2022/01/29 04:55:10;;;;;;;3.23;2.23;;;4.40;99.90;;;;;;4921819;29;20469;-65
2022/01/29 04:57:39;;;;;;;8.40;4.30;;;4.40;99.90;;;;;;4921593;29;20443;-58
2022/01/29 05:00:09;;;;;;;3.17;2.67;;;4.40;99.90;;;;;;4920982;29;20470;-60
2022/01/29 05:02:35;;;;;;;9.00;3.03;;;4.40;99.90;;;;;;4921162;29;21007;-57
2022/01/29 05:05:07;;;;;;;8.43;3.73;;;4.40;99.90;;;;;;4920956;29;20430;-56
2022/01/29 05:07:34;;;;;;;11.90;4.07;;;4.40;99.90;;;;;;4920621;29;20994;-54
2022/01/29 05:10:03;;;;;;;5.57;3.47;;;4.50;99.90;;;;;;4921063;29;20455;-62
2022/01/29 05:12:41;;;;;;;10.43;4.07;;;4.50;99.90;;;;;;4921628;29;20486;-54
2022/01/29 05:15:15;;;;;;;4.37;3.00;;;4.50;99.90;;;;;;4921990;29;20477;-59
2022/01/29 05:28:56;;;;;;;10.43;3.87;;;4.50;99.90;;;;;;4864095;29;20445;-58
2022/01/29 05:31:22;;;;;;;3.93;2.60;;;4.40;99.90;;;;;;4863892;29;20454;-53
2022/01/29 05:33:49;;;;;;;6.23;3.83;;;4.50;99.90;;;;;;4889440;29;20443;-53
2022/01/29 05:36:16;;;;;;;28.00;4.50;;;4.40;99.90;;;;;;4920209;29;20486;-51
2022/01/29 05:38:43;;;;;;;12.00;3.00;;;4.40;99.90;;;;;;4920159;29;20877;-57
2022/01/29 05:41:10;;;;;;;9.30;4.60;;;4.50;99.90;;;;;;4920392;29;20431;-56
2022/01/29 05:43:37;;;;;;;11.77;4.93;;;4.40;99.90;;;;;;4920512;29;20462;-56
2022/01/29 05:46:05;;;;;;;9.03;3.00;;;4.40;99.90;;;;;;4920196;29;20471;-55
2022/01/29 05:48:34;;;;;;;5.20;2.80;;;4.50;99.90;;;;;;4920678;29;20455;-59
2022/01/29 05:51:01;;;;;;;8.87;4.30;;;4.50;99.90;;;;;;4920401;29;20471;-55
2022/01/29 05:53:33;;;;;;;10.83;3.00;;;4.50;99.90;;;;;;4920511;29;20439;-57
2022/01/29 05:56:00;;;;;;;5.93;2.90;;;4.50;99.90;;;;;;4919826;29;20481;-51
2022/01/29 05:58:27;;;;;;;12.43;4.10;;;4.40;99.90;;;;;;4920639;29;20510;-49
2022/01/29 06:01:00;;;;;;;5.63;3.17;;;4.40;99.90;;;;;;4920683;29;20463;-54
2022/01/29 06:03:28;;;;;;;7.40;2.80;;;4.40;99.90;;;;;;4920614;29;20420;-49
2022/01/29 06:05:55;;;;;;;3.93;3.00;;;4.40;99.90;;;;;;4919873;29;20483;-58
2022/01/29 06:08:22;;;;;;;7.10;3.23;;;4.40;99.90;;;;;;4920144;29;20531;-52
2022/01/29 06:10:49;;;;;;;6.57;3.63;;;4.40;99.90;;;;;;4920291;29;20451;-59
2022/01/29 06:13:19;;;;;;;5.20;3.73;;;4.40;99.90;;;;;;4919227;29;20481;-52
2022/01/29 06:15:47;;;;;;;5.90;3.10;;;4.40;99.90;;;;;;4919788;29;20543;-57
2022/01/29 06:18:17;;;;;;;4.47;2.80;;;4.40;99.90;;;;;;4920515;29;20461;-53
2022/01/29 06:20:46;;;;;;;15.60;4.30;;;4.40;99.90;;;;;;4919932;29;20435;-60
2022/01/29 06:23:14;;;;;;;6.23;3.70;;;4.50;99.90;;;;;;4919618;29;20450;-55
2022/01/29 06:25:42;;;;;;;3.30;2.73;;;4.50;99.90;;;;;;4919613;29;20518;-57
2022/01/29 06:28:09;;;;;;;10.87;4.37;;;4.50;99.90;;;;;;4920004;29;20467;-57
2022/01/29 06:30:37;;;;;;;13.10;4.80;;;4.40;99.90;;;;;;4919920;29;20491;-59
2022/01/29 06:33:09;;;;;;;11.90;4.10;;;4.40;99.90;;;;;;4919420;29;20447;-48
2022/01/29 06:35:37;;;;;;;6.80;4.17;;;4.50;99.90;;;;;;4919662;29;20494;-55
2022/01/29 06:38:06;;;;;;;10.50;4.40;;;4.50;99.90;;;;;;4919624;29;20454;-49
2022/01/29 06:40:33;;;;;;;9.70;3.37;;;4.50;99.90;;;;;;4904083;29;20482;-62
2022/01/29 06:43:01;;;;;;;11.30;3.63;;;4.50;99.90;;;;;;4901320;29;20510;-64
2022/01/29 06:45:28;;;;;;;19.77;4.13;;;4.50;99.90;;;;;;4901032;29;20589;-61
2022/01/29 06:47:55;;;;;;;4.83;3.17;;;4.50;99.90;;;;;;4900646;29;20481;-61
2022/01/29 06:50:22;;;;;;;13.53;4.63;;;4.50;99.90;;;;;;4900787;29;20529;-60
2022/01/29 06:52:49;;;;;;;5.47;4.40;;;4.50;99.90;;;;;;4900063;29;20481;-61
2022/01/29 06:55:17;;;;;;;6.27;3.60;;;4.50;99.90;;;;;;4900071;29;20495;-59
2022/01/29 06:57:44;;;;;;;5.90;3.07;;;4.50;99.90;;;;;;4899644;29;20768;-60
2022/01/29 07:00:11;;;;;;;6.40;3.87;;;4.50;99.90;;;;;;4899857;29;20478;-62
2022/01/29 07:02:38;;;;;;;12.57;4.90;;;4.50;99.90;;;;;;4899859;29;20446;-61
2022/01/29 07:05:06;;;;;;;8.53;4.70;;;4.50;99.90;;;;;;4899840;29;20495;-65
2022/01/29 07:07:33;;;;;;;8.00;4.97;;;4.50;99.90;;;;;;4901046;29;20519;-57
2022/01/29 07:10:00;;;;;;;20.17;4.83;;;4.50;99.90;;;;;;4900078;29;20482;-59
2022/01/29 07:12:28;;;;;;;9.37;4.97;;;4.60;99.90;;;;;;4900581;29;20455;-62
2022/01/29 07:14:55;;;;;;;5.47;3.93;;;4.60;99.90;;;;;;4900238;29;20509;-64
2022/01/29 07:17:23;;;;;;;10.50;3.87;;;4.60;99.90;;;;;;4900394;29;20463;-58
2022/01/29 07:19:51;;;;;;;5.07;4.00;;;4.60;99.90;;;;;;4899599;29;20475;-59
2022/01/29 07:22:19;;;;;;;12.70;3.70;;;4.60;99.90;;;;;;4899213;29;20929;-63
2022/01/29 07:24:47;;;;;;;14.93;5.70;;;4.60;99.90;;;;;;4904372;29;20526;-57
2022/01/29 07:27:15;;;;;;;11.17;4.53;;;4.60;99.90;;;;;;4905830;29;20455;-60
2022/01/29 07:29:43;;;;;;;5.47;3.63;;;4.60;99.90;;;;;;4906130;29;20462;-65
2022/01/29 07:32:11;;;;;;;9.13;5.17;;;4.60;99.90;;;;;;4907113;29;20483;-54
2022/01/29 07:34:38;;;;;;;9.63;4.50;;;4.60;99.90;;;;;;4905489;29;20450;-60
2022/01/29 07:37:05;;;;;;;5.70;3.93;;;4.60;99.90;;;;;;4905447;29;20991;-60
2022/01/29 07:39:32;;;;;;;5.50;4.40;;;4.70;99.90;;;;;;4905843;29;20455;-53
2022/01/29 07:41:59;;;;;;;5.43;3.50;;;4.70;99.90;;;;;;4905639;29;20924;-57
2022/01/29 07:44:26;;;;;;;14.33;4.53;;;4.60;99.90;;;;;;4905841;29;20439;-53
2022/01/29 07:46:54;;;;;;;5.27;4.30;;;4.60;99.90;;;;;;4905846;29;20473;-58
2022/01/29 07:49:21;;;;;;;5.67;3.67;;;4.60;99.90;;;;;;4906721;29;20462;-59
2022/01/29 07:51:48;;;;;;;5.20;4.67;;;4.70;99.90;;;;;;4905726;29;20518;-57
2022/01/29 07:54:15;;;;;;;5.00;3.70;;;4.70;99.90;;;;;;4905901;29;20450;-55
2022/01/29 07:56:41;;;;;;;8.53;5.03;;;4.70;99.90;;;;;;4905792;29;20498;-61
2022/01/29 07:59:08;;;;;;;8.37;5.73;;;4.70;99.90;;;;;;4905789;29;20807;-62
2022/01/29 08:01:35;;;;;;;5.70;4.00;;;4.70;99.90;;;;;;4905645;29;20904;-59
2022/01/29 08:04:03;;;;;;;6.37;3.73;;;4.70;99.90;;;;;;4905835;29;20478;-58
2022/01/29 08:06:30;;;;;;;13.37;5.13;;;4.70;99.90;;;;;;4905794;29;20474;-61
2022/01/29 08:08:57;;;;;;;4.60;3.20;;;4.80;99.90;;;;;;4905739;29;20503;-59
2022/01/29 08:11:24;;;;;;;5.33;4.30;;;4.80;99.90;;;;;;4905825;29;20855;-59
2022/01/29 08:13:51;;;;;;;10.50;5.53;;;4.80;99.90;;;;;;4906598;29;20489;-65
2022/01/29 08:16:18;;;;;;;10.73;4.73;;;4.70;99.90;;;;;;4905816;29;20492;-61
2022/01/29 08:18:45;;;;;;;4.33;3.30;;;4.80;99.90;;;;;;4905710;29;20474;-62
2022/01/29 08:21:14;;;;;;;8.63;5.20;;;4.80;99.90;;;;;;4905599;29;20442;-62
2022/01/29 08:23:41;;;;;;;7.10;4.17;;;4.80;99.90;;;;;;4905389;29;20541;-59
2022/01/29 08:26:08;;;;;;;8.90;3.77;;;4.90;99.90;;;;;;4905429;29;20457;-60
2022/01/29 08:28:35;;;;;;;7.30;4.17;;;4.90;99.90;;;;;;4905213;29;20519;-57
2022/01/29 08:31:01;;;;;;;7.97;5.23;;;4.90;99.90;;;;;;4905515;29;20439;-62
2022/01/29 08:33:28;;;;;;;7.80;5.00;;;5.00;99.90;;;;;;4905398;29;20492;-62
2022/01/29 08:35:57;;;;;;;7.73;4.37;;;5.00;99.90;;;;;;4903035;29;20573;-65
2022/01/29 08:38:25;;;;;;;7.93;4.10;;;5.10;99.90;;;;;;4903438;29;20479;-60
2022/01/29 08:40:52;;;;;;;9.17;4.60;;;5.10;99.90;;;;;;4902982;29;21084;-62
2022/01/29 08:43:19;;;;;;;11.33;5.10;;;5.10;99.90;;;;;;4902364;29;21216;-61
2022/01/29 08:45:46;;;;;;;6.53;5.10;;;5.00;99.90;;;;;;4902446;29;20443;-60
2022/01/29 08:48:12;;;;;;;8.80;4.77;;;5.10;99.90;;;;;;4902283;29;20442;-60
2022/01/29 08:50:40;;;;;;;5.60;3.77;;;5.10;99.90;;;;;;4902096;29;20506;-59
2022/01/29 08:53:07;;;;;;;7.03;4.20;;;5.10;99.90;;;;;;4902193;29;20598;-59
2022/01/29 08:55:37;;;;;;;6.20;4.60;;;5.10;99.90;;;;;;4902325;29;20549;-60
2022/01/29 08:58:05;;;;;;;5.90;4.57;;;5.10;99.90;;;;;;4902022;29;20474;-60
2022/01/29 09:00:31;;;;;;;9.50;4.57;;;5.10;99.90;;;;;;4902285;29;20503;-62
2022/01/29 09:02:58;;;;;;;10.67;6.33;;;5.10;99.90;;;;;;4902922;29;20798;-61
2022/01/29 09:05:25;;;;;;;10.00;5.30;;;5.20;99.90;;;;;;4901933;29;20936;-59
2022/01/29 09:07:52;;;;;;;6.33;3.90;;;5.20;99.90;;;;;;4901924;29;20482;-58
2022/01/29 09:10:18;;;;;;;8.43;3.87;;;5.30;99.90;;;;;;4902037;29;20459;-62
2022/01/29 09:12:47;;;;;;;8.30;4.70;;;5.30;99.90;;;;;;4901651;29;20451;-61
2022/01/29 09:15:13;;;;;;;5.73;3.93;;;5.30;99.90;;;;;;4901713;29;20484;-59
2022/01/29 09:17:41;;;;;;;6.40;3.60;;;5.30;99.90;;;;;;4901664;29;20471;-61
2022/01/29 09:20:09;;;;;;;7.20;4.80;;;5.40;99.90;;;;;;4901673;29;20475;-60
2022/01/29 09:22:37;;;;;;;9.83;5.10;;;5.40;99.90;;;;;;4901876;29;20458;-60
2022/01/29 09:25:04;;;;;;;9.00;4.97;;;5.40;99.90;;;;;;4902128;29;20785;-66
2022/01/29 09:27:31;;;;;;;8.33;6.27;;;5.40;99.90;;;;;;4902389;29;20509;-62
2022/01/29 09:29:59;;;;;;;9.97;3.97;;;5.40;99.90;;;;;;4901725;29;20515;-64
2022/01/29 09:32:26;;;;;;;5.63;3.13;;;5.40;99.90;;;;;;4901575;29;20474;-62
2022/01/29 09:34:53;;;;;;;9.53;4.67;;;5.40;99.90;;;;;;4901454;29;20482;-60
2022/01/29 09:37:19;;;;;;;8.43;4.50;;;5.50;99.90;;;;;;4901388;29;20477;-60
2022/01/29 09:39:46;;;;;;;5.07;3.23;;;5.50;99.90;;;;;;4901282;29;20475;-57
2022/01/29 09:42:14;;;;;;;6.10;4.73;;;5.50;99.90;;;;;;4901474;29;20454;-60
2022/01/29 09:44:42;;;;;;;9.30;5.20;;;5.60;99.90;;;;;;4901361;29;20498;-59
2022/01/29 09:47:11;;;;;;;10.00;4.77;;;5.60;99.90;;;;;;4900304;29;20917;-60
2022/01/29 09:49:37;;;;;;;9.50;6.07;;;5.60;99.90;;;;;;4901543;29;20471;-64
2022/01/29 09:52:05;;;;;;;6.30;4.00;;;5.70;99.90;;;;;;4901726;29;20457;-59
2022/01/29 09:54:31;;;;;;;6.77;3.63;;;5.70;99.90;;;;;;4900868;29;20478;-62
2022/01/29 09:56:58;;;;;;;11.73;5.37;;;5.70;99.90;;;;;;4901093;29;20550;-61
2022/01/29 09:59:25;;;;;;;12.87;5.23;;;5.80;99.90;;;;;;4900989;29;20550;-58
2022/01/29 10:01:51;;;;;;;10.33;4.53;;;5.80;99.90;;;;;;4900994;29;20523;-60
2022/01/29 10:04:19;;;;;;;13.90;4.40;;;5.80;99.90;;;;;;4900668;29;20489;-60
2022/01/29 10:07:13;;;;;;;7.33;4.13;;;5.90;99.90;;;;;;4884265;29;20506;-61
2022/01/29 10:09:40;;;;;;;11.27;6.23;;;5.90;99.90;;;;;;4900878;29;20490;-59
2022/01/29 10:12:17;;;;;;;7.87;5.43;;;5.90;99.90;;;;;;4901827;29;20538;-61
2022/01/29 10:14:48;;;;;;;7.93;4.93;;;6.00;99.90;;;;;;4901173;29;20474;-63
2022/01/29 10:17:39;;;;;;;6.63;5.30;;;6.00;99.90;;;;;;4900819;29;20495;-60
2022/01/29 10:20:13;;;;;;;8.93;5.73;;;6.10;99.90;;;;;;4900758;29;20476;-60
2022/01/29 10:22:40;;;;;;;10.70;5.00;;;6.10;99.90;;;;;;4900744;29;20462;-62
2022/01/29 10:25:11;;;;;;;9.17;5.27;;;6.10;99.90;;;;;;4900603;29;20490;-59
2022/01/29 10:27:38;;;;;;;8.87;5.80;;;6.20;99.90;;;;;;4900621;29;20455;-62
2022/01/29 10:30:09;;;;;;;9.30;8.20;;;6.20;99.90;;;;;;4900476;29;20482;-54
2022/01/29 10:32:36;;;;;;;8.07;4.33;;;6.30;99.90;;;;;;4900297;29;20455;-59
2022/01/29 10:35:03;;;;;;;11.90;5.60;;;6.30;99.90;;;;;;4900109;29;20490;-59
2022/01/29 10:37:32;;;;;;;11.80;6.77;;;6.30;99.90;;;;;;4900434;29;20550;-56
2022/01/29 10:40:00;;;;;;;10.13;5.17;;;6.40;99.90;;;;;;4901292;29;20949;-60
2022/01/29 10:42:31;;;;;;;9.17;6.70;;;6.40;99.90;;;;;;4900412;29;20447;-60
2022/01/29 10:45:02;;;;;;;5.57;3.63;;;6.50;99.90;;;;;;4900207;29;20480;-59
2022/01/29 10:47:29;;;;;;;7.47;4.80;;;6.50;99.90;;;;;;4900316;29;20450;-60
2022/01/29 10:49:59;;;;;;;7.27;5.77;;;6.50;99.90;;;;;;4900162;29;20856;-61
2022/01/29 10:52:29;;;;;;;8.13;5.40;;;6.60;99.90;;;;;;4900317;29;20462;-60
2022/01/29 10:55:02;;;;;;;9.67;6.20;;;6.60;99.90;;;;;;4900184;29;20846;-60
2022/01/29 10:57:34;;;;;;;8.27;5.27;;;6.60;99.90;;;;;;4899899;29;20586;-54
2022/01/29 11:00:02;;;;;;;8.90;4.60;;;6.60;99.90;;;;;;4899614;29;20492;-56
2022/01/29 11:02:30;;;;;;;8.93;6.13;;;6.70;99.90;;;;;;4900436;29;20484;-57
2022/01/29 11:05:00;;;;;;;9.00;5.70;;;6.70;99.90;;;;;;4900357;29;20476;-57
2022/01/29 11:07:29;;;;;;;8.47;6.00;;;6.70;99.90;;;;;;4899971;29;20534;-57
2022/01/29 11:09:59;;;;;;;6.57;5.70;;;6.70;99.90;;;;;;4899657;29;20495;-55
2022/01/29 11:12:28;;;;;;;8.73;5.67;;;6.80;99.90;;;;;;4899857;29;20934;-58
2022/01/29 11:14:58;;;;;;;6.00;3.53;;;6.80;99.90;;;;;;4899928;29;20482;-55
2022/01/29 11:17:26;;;;;;;14.27;5.87;;;6.80;99.90;;;;;;4900050;29;20502;-56
2022/01/29 11:19:53;;;;;;;5.43;3.63;;;6.90;99.90;;;;;;4899778;29;20558;-57
2022/01/29 11:22:22;;;;;;;11.23;5.00;;;6.90;99.90;;;;;;4899641;29;20462;-59
2022/01/29 11:24:57;;;;;;;6.30;3.87;;;7.00;99.90;;;;;;4899778;29;20534;-59
2022/01/29 11:27:28;;;;;;;5.97;3.70;;;7.00;99.90;;;;;;4900508;29;20454;-61
2022/01/29 11:30:00;;;;;;;5.27;4.77;;;7.10;99.90;;;;;;4899908;29;20948;-57
2022/01/29 11:32:32;;;;;;;4.50;3.67;;;7.10;99.90;;;;;;4899605;29;20455;-60
2022/01/29 11:35:09;;;;;;;3.80;3.07;;;7.10;99.90;;;;;;4899707;29;20510;-57
2022/01/29 11:37:45;;;;;;;3.97;2.70;;;7.20;99.90;;;;;;4899675;29;20509;-59
2022/01/29 11:40:14;;;;;;;10.37;4.50;;;7.30;99.90;;;;;;4899786;29;20477;-62
2022/01/29 11:43:06;;;;;;;9.33;5.90;;;7.20;99.90;;;;;;4899624;29;20464;-59
2022/01/29 11:45:44;;;;;;;7.60;4.63;;;7.20;99.90;;;;;;4899746;29;20490;-59
2022/01/29 11:48:50;;;;;;;5.93;3.80;;;7.20;99.90;;;;;;4899828;29;20474;-60
2022/01/29 11:51:41;;;;;;;3.87;2.20;;;7.30;99.90;;;;;;4899980;29;21016;-62
2022/01/29 11:54:09;;;;;;;9.00;5.13;;;7.30;99.90;;;;;;4900055;29;20451;-57
2022/01/29 11:56:38;;;;;;;4.10;2.90;;;7.30;99.90;;;;;;4899592;29;20496;-59
2022/01/29 11:59:26;;;;;;;8.50;4.90;;;7.30;99.90;;;;;;4899434;29;20518;-59
2022/01/29 12:01:54;;;;;;;5.90;5.30;;;7.40;99.90;;;;;;4899597;29;20802;-60
2022/01/29 12:04:22;;;;;;;4.47;2.90;;;7.40;99.90;;;;;;4899682;29;20456;-63
2022/01/29 12:07:12;;;;;;;5.53;3.77;;;7.50;99.90;;;;;;4904764;29;20449;-58
2022/01/29 12:09:47;;;;;;;6.67;4.53;;;7.50;99.90;;;;;;4905376;29;20486;-58
2022/01/29 12:12:16;;;;;;;6.70;3.47;;;7.50;99.90;;;;;;4909090;29;20542;-58
2022/01/29 12:14:45;;;;;;;6.00;4.80;;;7.50;99.90;;;;;;4908961;29;20466;-58
2022/01/29 12:17:13;;;;;;;3.70;3.37;;;7.50;99.90;;;;;;4913976;29;20502;-56
2022/01/29 12:19:42;;;;;;;5.33;4.53;;;7.60;99.90;;;;;;4912047;29;20443;-55
2022/01/29 12:22:11;;;;;;;12.40;5.13;;;7.70;99.90;;;;;;4907945;29;20455;-56
2022/01/29 12:24:39;;;;;;;7.80;4.37;;;7.60;99.90;;;;;;4907168;29;20440;-58
2022/01/29 12:27:06;;;;;;;11.50;4.83;;;7.60;99.90;;;;;;4909927;29;20439;-58
2022/01/29 12:29:32;;;;;;;7.97;4.07;;;7.60;99.90;;;;;;4915124;29;20458;-59
2022/01/29 12:32:01;;;;;;;5.00;3.47;;;7.70;99.90;;;;;;4912117;29;20467;-56
2022/01/29 12:34:28;;;;;;;4.80;3.53;;;7.70;99.90;;;;;;4919896;29;20477;-55
2022/01/29 12:37:08;;;;;;;5.50;3.63;;;7.70;99.90;;;;;;4909981;29;20505;-52
2022/01/29 12:39:38;;;;;;;7.27;3.43;;;7.80;99.90;;;;;;4900215;29;20525;-59
2022/01/29 12:42:12;;;;;;;9.90;5.67;;;7.80;99.90;;;;;;4915971;29;20546;-59
2022/01/29 12:44:40;;;;;;;8.13;3.77;;;7.80;99.90;;;;;;4905113;29;20456;-61
2022/01/29 12:47:08;;;;;;;5.80;3.03;;;7.80;99.90;;;;;;4910379;29;20467;-58
2022/01/29 12:49:42;;;;;;;4.80;2.83;;;7.80;99.90;;;;;;4914227;29;20447;-58
2022/01/29 12:52:15;;;;;;;10.90;4.90;;;7.90;99.90;;;;;;4907611;29;20475;-60
2022/01/29 12:54:50;;;;;;;5.17;2.90;;;7.90;99.90;;;;;;4904605;29;20439;-58
2022/01/29 12:57:17;;;;;;;8.00;3.50;;;8.00;99.90;;;;;;4898241;29;20544;-54
2022/01/29 12:59:43;;;;;;;5.77;3.53;;;8.00;99.90;;;;;;4909766;29;20453;-59
2022/01/29 13:02:12;;;;;;;3.47;3.17;;;8.10;99.90;;;;;;4903866;29;20475;-58
2022/01/29 13:04:39;;;;;;;8.00;4.23;;;8.10;99.90;;;;;;4893071;29;20442;-59
2022/01/29 13:07:08;;;;;;;5.37;3.10;;;8.10;99.90;;;;;;4882782;29;20479;-59
2022/01/29 13:09:36;;;;;;;6.73;3.13;;;8.10;99.90;;;;;;4900007;29;20520;-60
2022/01/29 13:12:05;;;;;;;6.07;3.77;;;8.20;99.90;;;;;;4888226;29;20548;-60
2022/01/29 13:14:33;;;;;;;4.23;3.10;;;8.30;99.90;;;;;;4892850;29;20928;-60